sensor_id;sensor_type;location;lat;lon;timestamp;P1;durP1;ratioP1;P2;durP2;ratioP2
10452;SDS011;5274;51.992;8.518;2023-02-12T00:00:34;49.30;;;26.67;;
10452;SDS011;5274;51.992;8.518;2023-02-12T00:03:00;49.60;;;26.58;;
10452;SDS011;5274;51.992;8.518;2023-02-12T00:05:26;52.05;;;25.95;;
10452;SDS011;5274;51.992;8.518;2023-02-12T00:07:52;50.83;;;24.88;;
10452;SDS011;5274;51.992;8.518;2023-02-12T00:10:17;47.45;;;25.48;;
10452;SDS011;5274;51.992;8.518;2023-02-12T00:12:43;48.30;;;24.98;;
10452;SDS011;5274;51.992;8.518;2023-02-12T00:15:09;46.10;;;24.08;;
10452;SDS011;5274;51.992;8.518;2023-02-12T00:17:34;46.72;;;24.00;;
10452;SDS011;5274;51.992;8.518;2023-02-12T00:20:00;50.63;;;25.70;;
10452;SDS011;5274;51.992;8.518;2023-02-12T00:22:25;45.00;;;24.35;;
10452;SDS011;5274;51.992;8.518;2023-02-12T00:24:51;44.65;;;25.75;;
10452;SDS011;5274;51.992;8.518;2023-02-12T00:27:17;45.97;;;24.40;;
10452;SDS011;5274;51.992;8.518;2023-02-12T00:29:42;53.13;;;26.27;;
10452;SDS011;5274;51.992;8.518;2023-02-12T00:32:08;52.92;;;26.40;;
10452;SDS011;5274;51.992;8.518;2023-02-12T00:34:34;47.15;;;25.08;;
10452;SDS011;5274;51.992;8.518;2023-02-12T00:36:59;48.80;;;25.90;;
10452;SDS011;5274;51.992;8.518;2023-02-12T00:39:25;48.75;;;25.30;;
10452;SDS011;5274;51.992;8.518;2023-02-12T00:41:50;48.88;;;26.38;;
10452;SDS011;5274;51.992;8.518;2023-02-12T00:44:16;55.50;;;27.25;;
10452;SDS011;5274;51.992;8.518;2023-02-12T00:46:41;51.58;;;26.48;;
10452;SDS011;5274;51.992;8.518;2023-02-12T00:49:07;47.67;;;25.45;;
10452;SDS011;5274;51.992;8.518;2023-02-12T00:51:32;54.80;;;26.00;;
10452;SDS011;5274;51.992;8.518;2023-02-12T00:53:58;48.53;;;25.60;;
10452;SDS011;5274;51.992;8.518;2023-02-12T00:56:23;52.38;;;27.20;;
10452;SDS011;5274;51.992;8.518;2023-02-12T00:58:49;51.95;;;26.98;;
10452;SDS011;5274;51.992;8.518;2023-02-12T01:01:15;51.47;;;26.48;;
10452;SDS011;5274;51.992;8.518;2023-02-12T01:03:40;48.85;;;25.90;;
10452;SDS011;5274;51.992;8.518;2023-02-12T01:06:06;51.85;;;26.42;;
10452;SDS011;5274;51.992;8.518;2023-02-12T01:08:32;47.95;;;25.95;;
10452;SDS011;5274;51.992;8.518;2023-02-12T01:10:59;54.20;;;26.75;;
10452;SDS011;5274;51.992;8.518;2023-02-12T01:13:26;55.58;;;27.10;;
10452;SDS011;5274;51.992;8.518;2023-02-12T01:16:02;55.67;;;26.98;;
10452;SDS011;5274;51.992;8.518;2023-02-12T01:18:33;52.53;;;27.25;;
10452;SDS011;5274;51.992;8.518;2023-02-12T01:21:00;49.03;;;25.75;;
10452;SDS011;5274;51.992;8.518;2023-02-12T01:23:25;48.63;;;25.63;;
10452;SDS011;5274;51.992;8.518;2023-02-12T01:25:51;49.50;;;26.58;;
10452;SDS011;5274;51.992;8.518;2023-02-12T01:28:17;48.17;;;25.80;;
10452;SDS011;5274;51.992;8.518;2023-02-12T01:30:42;47.60;;;25.15;;
10452;SDS011;5274;51.992;8.518;2023-02-12T01:33:08;49.80;;;25.90;;
10452;SDS011;5274;51.992;8.518;2023-02-12T01:35:35;52.72;;;25.70;;
10452;SDS011;5274;51.992;8.518;2023-02-12T01:38:01;52.55;;;25.17;;
10452;SDS011;5274;51.992;8.518;2023-02-12T01:40:27;47.33;;;25.40;;
10452;SDS011;5274;51.992;8.518;2023-02-12T01:42:52;48.85;;;25.45;;
10452;SDS011;5274;51.992;8.518;2023-02-12T01:47:47;52.65;;;25.05;;
10452;SDS011;5274;51.992;8.518;2023-02-12T01:50:16;53.35;;;27.25;;
10452;SDS011;5274;51.992;8.518;2023-02-12T01:52:47;54.53;;;27.38;;
10452;SDS011;5274;51.992;8.518;2023-02-12T01:55:18;51.90;;;26.35;;
10452;SDS011;5274;51.992;8.518;2023-02-12T01:57:44;49.45;;;26.55;;
10452;SDS011;5274;51.992;8.518;2023-02-12T02:00:17;46.72;;;24.13;;
10452;SDS011;5274;51.992;8.518;2023-02-12T02:02:45;43.97;;;23.95;;
10452;SDS011;5274;51.992;8.518;2023-02-12T02:05:17;41.42;;;25.00;;
10452;SDS011;5274;51.992;8.518;2023-02-12T02:07:48;46.75;;;26.05;;
10452;SDS011;5274;51.992;8.518;2023-02-12T02:10:13;55.25;;;25.63;;
10452;SDS011;5274;51.992;8.518;2023-02-12T02:12:39;49.38;;;25.67;;
10452;SDS011;5274;51.992;8.518;2023-02-12T02:15:24;48.90;;;26.67;;
10452;SDS011;5274;51.992;8.518;2023-02-12T02:17:54;51.42;;;26.95;;
10452;SDS011;5274;51.992;8.518;2023-02-12T02:21:02;55.50;;;27.08;;
10452;SDS011;5274;51.992;8.518;2023-02-12T02:26:43;50.72;;;25.15;;
10452;SDS011;5274;51.992;8.518;2023-02-12T02:32:23;47.20;;;25.73;;
10452;SDS011;5274;51.992;8.518;2023-02-12T02:35:10;47.10;;;24.42;;
10452;SDS011;5274;51.992;8.518;2023-02-12T02:37:47;44.63;;;24.45;;
10452;SDS011;5274;51.992;8.518;2023-02-12T02:43:54;54.63;;;27.05;;
10452;SDS011;5274;51.992;8.518;2023-02-12T02:46:29;49.00;;;25.60;;
10452;SDS011;5274;51.992;8.518;2023-02-12T02:49:06;47.20;;;26.45;;
10452;SDS011;5274;51.992;8.518;2023-02-12T02:51:39;55.05;;;26.63;;
10452;SDS011;5274;51.992;8.518;2023-02-12T02:54:08;55.55;;;26.73;;
10452;SDS011;5274;51.992;8.518;2023-02-12T02:56:59;50.42;;;27.17;;
10452;SDS011;5274;51.992;8.518;2023-02-12T02:59:41;55.33;;;26.95;;
10452;SDS011;5274;51.992;8.518;2023-02-12T03:02:13;51.58;;;26.70;;
10452;SDS011;5274;51.992;8.518;2023-02-12T03:04:48;56.22;;;27.80;;
10452;SDS011;5274;51.992;8.518;2023-02-12T03:07:27;50.03;;;25.40;;
10452;SDS011;5274;51.992;8.518;2023-02-12T03:10:00;62.80;;;28.27;;
10452;SDS011;5274;51.992;8.518;2023-02-12T03:12:35;54.45;;;27.88;;
10452;SDS011;5274;51.992;8.518;2023-02-12T03:15:12;58.28;;;27.98;;
10452;SDS011;5274;51.992;8.518;2023-02-12T03:17:54;54.78;;;28.73;;
10452;SDS011;5274;51.992;8.518;2023-02-12T03:20:27;60.05;;;28.40;;
10452;SDS011;5274;51.992;8.518;2023-02-12T03:23:16;62.28;;;27.98;;
10452;SDS011;5274;51.992;8.518;2023-02-12T03:25:57;60.05;;;28.65;;
10452;SDS011;5274;51.992;8.518;2023-02-12T03:28:31;61.65;;;29.88;;
10452;SDS011;5274;51.992;8.518;2023-02-12T03:36:35;63.53;;;30.10;;
10452;SDS011;5274;51.992;8.518;2023-02-12T03:39:05;64.57;;;29.42;;
10452;SDS011;5274;51.992;8.518;2023-02-12T03:41:39;55.30;;;28.15;;
10452;SDS011;5274;51.992;8.518;2023-02-12T03:44:19;66.47;;;29.77;;
10452;SDS011;5274;51.992;8.518;2023-02-12T03:47:00;80.53;;;31.45;;
10452;SDS011;5274;51.992;8.518;2023-02-12T03:49:32;65.80;;;30.98;;
10452;SDS011;5274;51.992;8.518;2023-02-12T03:52:06;64.03;;;28.75;;
10452;SDS011;5274;51.992;8.518;2023-02-12T03:54:32;128.93;;;34.85;;
10452;SDS011;5274;51.992;8.518;2023-02-12T03:57:00;64.68;;;31.50;;
10452;SDS011;5274;51.992;8.518;2023-02-12T03:59:42;83.32;;;33.67;;
10452;SDS011;5274;51.992;8.518;2023-02-12T04:02:08;105.32;;;36.47;;
10452;SDS011;5274;51.992;8.518;2023-02-12T04:04:34;88.35;;;34.45;;
10452;SDS011;5274;51.992;8.518;2023-02-12T04:07:00;85.05;;;33.10;;
10452;SDS011;5274;51.992;8.518;2023-02-12T04:09:26;94.68;;;36.58;;
10452;SDS011;5274;51.992;8.518;2023-02-12T04:11:57;79.55;;;35.05;;
10452;SDS011;5274;51.992;8.518;2023-02-12T04:14:49;112.68;;;36.33;;
10452;SDS011;5274;51.992;8.518;2023-02-12T04:17:49;77.47;;;34.55;;
10452;SDS011;5274;51.992;8.518;2023-02-12T04:20:47;84.50;;;32.35;;
10452;SDS011;5274;51.992;8.518;2023-02-12T04:23:28;92.95;;;34.17;;
10452;SDS011;5274;51.992;8.518;2023-02-12T04:29:25;100.05;;;34.45;;
10452;SDS011;5274;51.992;8.518;2023-02-12T04:32:20;66.82;;;31.25;;
10452;SDS011;5274;51.992;8.518;2023-02-12T04:37:42;82.40;;;33.90;;
10452;SDS011;5274;51.992;8.518;2023-02-12T04:40:12;125.65;;;38.33;;
10452;SDS011;5274;51.992;8.518;2023-02-12T04:42:42;72.25;;;32.25;;
10452;SDS011;5274;51.992;8.518;2023-02-12T04:45:12;68.10;;;31.23;;
10452;SDS011;5274;51.992;8.518;2023-02-12T04:47:39;92.38;;;33.65;;
10452;SDS011;5274;51.992;8.518;2023-02-12T04:50:05;121.57;;;35.95;;
10452;SDS011;5274;51.992;8.518;2023-02-12T04:52:32;74.63;;;33.10;;
10452;SDS011;5274;51.992;8.518;2023-02-12T04:54:57;150.90;;;42.15;;
10452;SDS011;5274;51.992;8.518;2023-02-12T04:57:23;72.07;;;33.63;;
10452;SDS011;5274;51.992;8.518;2023-02-12T04:59:48;96.18;;;34.65;;
10452;SDS011;5274;51.992;8.518;2023-02-12T05:02:14;76.40;;;32.97;;
10452;SDS011;5274;51.992;8.518;2023-02-12T05:04:39;211.43;;;42.92;;
10452;SDS011;5274;51.992;8.518;2023-02-12T05:07:05;77.55;;;33.72;;
10452;SDS011;5274;51.992;8.518;2023-02-12T05:09:30;73.90;;;32.75;;
10452;SDS011;5274;51.992;8.518;2023-02-12T05:11:56;95.50;;;37.22;;
10452;SDS011;5274;51.992;8.518;2023-02-12T05:14:23;144.30;;;40.30;;
10452;SDS011;5274;51.992;8.518;2023-02-12T05:16:49;90.40;;;35.50;;
10452;SDS011;5274;51.992;8.518;2023-02-12T05:19:15;101.75;;;37.50;;
10452;SDS011;5274;51.992;8.518;2023-02-12T05:21:40;89.18;;;35.78;;
10452;SDS011;5274;51.992;8.518;2023-02-12T05:24:06;84.82;;;34.30;;
10452;SDS011;5274;51.992;8.518;2023-02-12T05:26:32;87.70;;;35.40;;
10452;SDS011;5274;51.992;8.518;2023-02-12T05:28:57;74.18;;;34.00;;
10452;SDS011;5274;51.992;8.518;2023-02-12T05:31:23;112.78;;;37.63;;
10452;SDS011;5274;51.992;8.518;2023-02-12T05:33:48;73.50;;;33.45;;
10452;SDS011;5274;51.992;8.518;2023-02-12T05:36:15;106.63;;;37.58;;
10452;SDS011;5274;51.992;8.518;2023-02-12T05:38:42;100.65;;;36.13;;
10452;SDS011;5274;51.992;8.518;2023-02-12T05:41:12;90.25;;;34.35;;
10452;SDS011;5274;51.992;8.518;2023-02-12T05:43:40;204.75;;;44.75;;
10452;SDS011;5274;51.992;8.518;2023-02-12T05:46:05;150.48;;;40.75;;
10452;SDS011;5274;51.992;8.518;2023-02-12T05:48:32;163.82;;;40.00;;
10452;SDS011;5274;51.992;8.518;2023-02-12T05:51:01;135.75;;;39.35;;
10452;SDS011;5274;51.992;8.518;2023-02-12T05:53:28;134.50;;;38.58;;
10452;SDS011;5274;51.992;8.518;2023-02-12T05:55:54;135.18;;;39.70;;
10452;SDS011;5274;51.992;8.518;2023-02-12T05:58:19;272.98;;;46.13;;
10452;SDS011;5274;51.992;8.518;2023-02-12T06:00:45;236.25;;;46.28;;
10452;SDS011;5274;51.992;8.518;2023-02-12T06:03:10;347.05;;;48.50;;
10452;SDS011;5274;51.992;8.518;2023-02-12T06:05:36;216.95;;;47.13;;
10452;SDS011;5274;51.992;8.518;2023-02-12T06:08:01;229.10;;;43.50;;
10452;SDS011;5274;51.992;8.518;2023-02-12T06:10:27;99.93;;;37.67;;
10452;SDS011;5274;51.992;8.518;2023-02-12T06:12:53;102.40;;;37.67;;
10452;SDS011;5274;51.992;8.518;2023-02-12T06:15:19;130.38;;;38.95;;
10452;SDS011;5274;51.992;8.518;2023-02-12T06:17:44;146.35;;;41.17;;
10452;SDS011;5274;51.992;8.518;2023-02-12T06:20:10;442.52;;;57.92;;
10452;SDS011;5274;51.992;8.518;2023-02-12T06:22:35;367.10;;;57.53;;
10452;SDS011;5274;51.992;8.518;2023-02-12T06:25:02;174.50;;;41.40;;
10452;SDS011;5274;51.992;8.518;2023-02-12T06:27:28;185.88;;;45.90;;
10452;SDS011;5274;51.992;8.518;2023-02-12T06:29:53;183.43;;;43.75;;
10452;SDS011;5274;51.992;8.518;2023-02-12T06:32:19;260.98;;;47.42;;
10452;SDS011;5274;51.992;8.518;2023-02-12T06:34:44;92.82;;;36.97;;
10452;SDS011;5274;51.992;8.518;2023-02-12T06:37:10;172.20;;;42.00;;
10452;SDS011;5274;51.992;8.518;2023-02-12T06:39:36;470.00;;;59.85;;
10452;SDS011;5274;51.992;8.518;2023-02-12T06:42:02;567.08;;;61.20;;
10452;SDS011;5274;51.992;8.518;2023-02-12T06:44:27;346.38;;;53.53;;
10452;SDS011;5274;51.992;8.518;2023-02-12T06:46:53;313.27;;;50.08;;
10452;SDS011;5274;51.992;8.518;2023-02-12T06:49:18;188.30;;;47.22;;
10452;SDS011;5274;51.992;8.518;2023-02-12T06:51:44;202.80;;;46.00;;
10452;SDS011;5274;51.992;8.518;2023-02-12T06:54:11;584.25;;;72.68;;
10452;SDS011;5274;51.992;8.518;2023-02-12T06:56:38;216.57;;;44.08;;
10452;SDS011;5274;51.992;8.518;2023-02-12T06:59:03;361.40;;;58.10;;
10452;SDS011;5274;51.992;8.518;2023-02-12T07:01:29;454.45;;;59.50;;
10452;SDS011;5274;51.992;8.518;2023-02-12T07:03:55;197.15;;;44.90;;
10452;SDS011;5274;51.992;8.518;2023-02-12T07:06:23;391.13;;;53.08;;
10452;SDS011;5274;51.992;8.518;2023-02-12T07:08:50;241.88;;;47.20;;
10452;SDS011;5274;51.992;8.518;2023-02-12T07:11:16;206.48;;;42.10;;
10452;SDS011;5274;51.992;8.518;2023-02-12T07:13:42;176.40;;;45.63;;
10452;SDS011;5274;51.992;8.518;2023-02-12T07:16:09;538.15;;;64.65;;
10452;SDS011;5274;51.992;8.518;2023-02-12T07:18:37;201.15;;;43.08;;
10452;SDS011;5274;51.992;8.518;2023-02-12T07:21:03;224.68;;;47.22;;
10452;SDS011;5274;51.992;8.518;2023-02-12T07:23:30;178.90;;;44.33;;
10452;SDS011;5274;51.992;8.518;2023-02-12T07:25:57;436.10;;;59.55;;
10452;SDS011;5274;51.992;8.518;2023-02-12T07:28:25;180.07;;;42.70;;
10452;SDS011;5274;51.992;8.518;2023-02-12T07:30:51;381.55;;;57.35;;
10452;SDS011;5274;51.992;8.518;2023-02-12T07:33:17;302.00;;;50.83;;
10452;SDS011;5274;51.992;8.518;2023-02-12T07:35:43;191.15;;;43.85;;
10452;SDS011;5274;51.992;8.518;2023-02-12T07:38:08;273.85;;;52.22;;
10452;SDS011;5274;51.992;8.518;2023-02-12T07:40:34;97.85;;;37.35;;
10452;SDS011;5274;51.992;8.518;2023-02-12T07:42:59;388.42;;;55.17;;
10452;SDS011;5274;51.992;8.518;2023-02-12T07:45:25;164.43;;;41.53;;
10452;SDS011;5274;51.992;8.518;2023-02-12T07:47:51;279.58;;;49.17;;
10452;SDS011;5274;51.992;8.518;2023-02-12T07:50:16;243.75;;;49.58;;
10452;SDS011;5274;51.992;8.518;2023-02-12T07:52:42;140.57;;;41.65;;
10452;SDS011;5274;51.992;8.518;2023-02-12T07:55:08;410.77;;;56.67;;
10452;SDS011;5274;51.992;8.518;2023-02-12T07:57:34;208.95;;;46.17;;
10452;SDS011;5274;51.992;8.518;2023-02-12T08:00:00;349.17;;;56.35;;
10452;SDS011;5274;51.992;8.518;2023-02-12T08:02:25;318.70;;;52.85;;
10452;SDS011;5274;51.992;8.518;2023-02-12T08:04:57;219.68;;;50.90;;
10452;SDS011;5274;51.992;8.518;2023-02-12T08:07:23;214.90;;;50.83;;
10452;SDS011;5274;51.992;8.518;2023-02-12T08:09:49;201.80;;;46.17;;
10452;SDS011;5274;51.992;8.518;2023-02-12T08:12:16;207.75;;;50.25;;
10452;SDS011;5274;51.992;8.518;2023-02-12T08:14:42;153.90;;;44.72;;
10452;SDS011;5274;51.992;8.518;2023-02-12T08:17:08;114.40;;;42.65;;
10452;SDS011;5274;51.992;8.518;2023-02-12T08:19:34;159.27;;;47.45;;
10452;SDS011;5274;51.992;8.518;2023-02-12T08:21:59;117.30;;;42.80;;
10452;SDS011;5274;51.992;8.518;2023-02-12T08:24:27;143.50;;;43.55;;
10452;SDS011;5274;51.992;8.518;2023-02-12T08:26:53;135.57;;;44.20;;
10452;SDS011;5274;51.992;8.518;2023-02-12T08:29:20;127.95;;;43.03;;
10452;SDS011;5274;51.992;8.518;2023-02-12T08:31:48;173.88;;;47.58;;
10452;SDS011;5274;51.992;8.518;2023-02-12T08:34:16;106.57;;;42.33;;
10452;SDS011;5274;51.992;8.518;2023-02-12T08:36:44;153.95;;;46.97;;
10452;SDS011;5274;51.992;8.518;2023-02-12T08:39:10;125.68;;;44.20;;
10452;SDS011;5274;51.992;8.518;2023-02-12T08:41:36;123.30;;;44.35;;
10452;SDS011;5274;51.992;8.518;2023-02-12T08:44:02;123.68;;;44.30;;
10452;SDS011;5274;51.992;8.518;2023-02-12T08:46:30;148.68;;;47.92;;
10452;SDS011;5274;51.992;8.518;2023-02-12T08:48:58;129.25;;;45.00;;
10452;SDS011;5274;51.992;8.518;2023-02-12T08:51:30;152.88;;;45.58;;
10452;SDS011;5274;51.992;8.518;2023-02-12T08:53:58;140.00;;;45.10;;
10452;SDS011;5274;51.992;8.518;2023-02-12T08:56:25;109.13;;;42.80;;
10452;SDS011;5274;51.992;8.518;2023-02-12T08:58:52;158.57;;;48.42;;
10452;SDS011;5274;51.992;8.518;2023-02-12T09:01:21;147.32;;;47.53;;
10452;SDS011;5274;51.992;8.518;2023-02-12T09:03:48;122.47;;;44.08;;
10452;SDS011;5274;51.992;8.518;2023-02-12T09:06:15;132.40;;;45.20;;
10452;SDS011;5274;51.992;8.518;2023-02-12T09:08:42;123.40;;;42.45;;
10452;SDS011;5274;51.992;8.518;2023-02-12T09:11:09;116.70;;;44.03;;
10452;SDS011;5274;51.992;8.518;2023-02-12T09:13:37;124.03;;;43.35;;
10452;SDS011;5274;51.992;8.518;2023-02-12T09:16:04;139.52;;;46.65;;
10452;SDS011;5274;51.992;8.518;2023-02-12T09:18:31;138.52;;;46.67;;
10452;SDS011;5274;51.992;8.518;2023-02-12T09:21:02;127.03;;;45.70;;
10452;SDS011;5274;51.992;8.518;2023-02-12T09:23:33;104.07;;;41.72;;
10452;SDS011;5274;51.992;8.518;2023-02-12T09:25:59;119.90;;;43.58;;
10452;SDS011;5274;51.992;8.518;2023-02-12T09:28:28;111.70;;;42.42;;
10452;SDS011;5274;51.992;8.518;2023-02-12T09:30:54;102.95;;;42.40;;
10452;SDS011;5274;51.992;8.518;2023-02-12T09:33:19;99.05;;;42.10;;
10452;SDS011;5274;51.992;8.518;2023-02-12T09:35:46;105.68;;;41.60;;
10452;SDS011;5274;51.992;8.518;2023-02-12T09:38:12;104.22;;;40.70;;
10452;SDS011;5274;51.992;8.518;2023-02-12T09:46:27;95.85;;;41.13;;
10452;SDS011;5274;51.992;8.518;2023-02-12T09:52:12;82.55;;;36.63;;
10452;SDS011;5274;51.992;8.518;2023-02-12T09:54:41;83.20;;;37.15;;
10452;SDS011;5274;51.992;8.518;2023-02-12T09:57:41;89.20;;;37.67;;
10452;SDS011;5274;51.992;8.518;2023-02-12T10:00:08;80.93;;;35.95;;
10452;SDS011;5274;51.992;8.518;2023-02-12T10:02:48;71.18;;;35.13;;
10452;SDS011;5274;51.992;8.518;2023-02-12T10:05:18;72.68;;;33.67;;
10452;SDS011;5274;51.992;8.518;2023-02-12T10:07:57;65.15;;;32.58;;
10452;SDS011;5274;51.992;8.518;2023-02-12T10:13:16;67.20;;;31.40;;
10452;SDS011;5274;51.992;8.518;2023-02-12T10:15:51;64.78;;;30.92;;
10452;SDS011;5274;51.992;8.518;2023-02-12T10:21:46;58.10;;;29.92;;
10452;SDS011;5274;51.992;8.518;2023-02-12T10:27:31;52.47;;;24.02;;
10452;SDS011;5274;51.992;8.518;2023-02-12T10:30:13;45.45;;;24.50;;
10452;SDS011;5274;51.992;8.518;2023-02-12T10:32:42;50.55;;;24.85;;
10452;SDS011;5274;51.992;8.518;2023-02-12T10:35:14;37.88;;;20.98;;
10452;SDS011;5274;51.992;8.518;2023-02-12T10:40:31;44.40;;;19.95;;
10452;SDS011;5274;51.992;8.518;2023-02-12T10:42:58;42.25;;;20.98;;
10452;SDS011;5274;51.992;8.518;2023-02-12T10:45:29;40.45;;;20.25;;
10452;SDS011;5274;51.992;8.518;2023-02-12T10:48:17;41.90;;;21.15;;
10452;SDS011;5274;51.992;8.518;2023-02-12T10:53:23;37.38;;;20.38;;
10452;SDS011;5274;51.992;8.518;2023-02-12T11:01:16;39.13;;;20.42;;
10452;SDS011;5274;51.992;8.518;2023-02-12T11:03:59;37.50;;;18.92;;
10452;SDS011;5274;51.992;8.518;2023-02-12T11:06:55;37.35;;;19.00;;
10452;SDS011;5274;51.992;8.518;2023-02-12T11:09:26;35.70;;;18.65;;
10452;SDS011;5274;51.992;8.518;2023-02-12T11:12:00;33.85;;;17.30;;
10452;SDS011;5274;51.992;8.518;2023-02-12T11:14:26;35.75;;;18.65;;
10452;SDS011;5274;51.992;8.518;2023-02-12T11:16:53;37.20;;;17.30;;
10452;SDS011;5274;51.992;8.518;2023-02-12T11:19:22;31.58;;;17.50;;
10452;SDS011;5274;51.992;8.518;2023-02-12T11:21:50;30.55;;;16.92;;
10452;SDS011;5274;51.992;8.518;2023-02-12T11:24:31;39.25;;;16.75;;
10452;SDS011;5274;51.992;8.518;2023-02-12T11:29:44;29.00;;;16.70;;
10452;SDS011;5274;51.992;8.518;2023-02-12T11:32:16;31.08;;;16.63;;
10452;SDS011;5274;51.992;8.518;2023-02-12T11:34:43;32.60;;;16.80;;
10452;SDS011;5274;51.992;8.518;2023-02-12T11:37:16;29.30;;;16.15;;
10452;SDS011;5274;51.992;8.518;2023-02-12T11:39:46;52.00;;;25.45;;
10452;SDS011;5274;51.992;8.518;2023-02-12T11:42:15;71.70;;;36.85;;
10452;SDS011;5274;51.992;8.518;2023-02-12T11:44:49;31.35;;;16.63;;
10452;SDS011;5274;51.992;8.518;2023-02-12T11:47:20;28.38;;;16.20;;
10452;SDS011;5274;51.992;8.518;2023-02-12T11:52:24;26.90;;;15.60;;
10452;SDS011;5274;51.992;8.518;2023-02-12T11:54:57;27.30;;;14.77;;
10452;SDS011;5274;51.992;8.518;2023-02-12T11:57:45;23.45;;;14.32;;
10452;SDS011;5274;51.992;8.518;2023-02-12T12:05:56;28.88;;;14.07;;
10452;SDS011;5274;51.992;8.518;2023-02-12T12:08:38;27.13;;;15.57;;
10452;SDS011;5274;51.992;8.518;2023-02-12T12:11:11;24.50;;;13.95;;
10452;SDS011;5274;51.992;8.518;2023-02-12T12:13:58;29.08;;;15.18;;
10452;SDS011;5274;51.992;8.518;2023-02-12T12:17:15;28.17;;;16.58;;
10452;SDS011;5274;51.992;8.518;2023-02-12T12:20:02;26.65;;;16.15;;
10452;SDS011;5274;51.992;8.518;2023-02-12T12:22:37;28.05;;;15.32;;
10452;SDS011;5274;51.992;8.518;2023-02-12T12:25:21;25.38;;;15.23;;
10452;SDS011;5274;51.992;8.518;2023-02-12T12:28:16;25.35;;;15.05;;
10452;SDS011;5274;51.992;8.518;2023-02-12T12:33:32;25.90;;;13.52;;
10452;SDS011;5274;51.992;8.518;2023-02-12T12:39:15;23.70;;;12.55;;
10452;SDS011;5274;51.992;8.518;2023-02-12T12:44:49;26.48;;;18.17;;
10452;SDS011;5274;51.992;8.518;2023-02-12T12:50:40;26.67;;;14.43;;
10452;SDS011;5274;51.992;8.518;2023-02-12T12:58:32;34.75;;;20.13;;
10452;SDS011;5274;51.992;8.518;2023-02-12T13:01:37;23.35;;;12.05;;
10452;SDS011;5274;51.992;8.518;2023-02-12T13:04:36;29.15;;;17.35;;
10452;SDS011;5274;51.992;8.518;2023-02-12T13:10:15;10.30;;;6.93;;
10452;SDS011;5274;51.992;8.518;2023-02-12T13:18:31;10.07;;;6.45;;
10452;SDS011;5274;51.992;8.518;2023-02-12T13:21:14;14.55;;;10.63;;
10452;SDS011;5274;51.992;8.518;2023-02-12T13:23:50;10.18;;;7.00;;
10452;SDS011;5274;51.992;8.518;2023-02-12T13:26:26;9.10;;;6.05;;
10452;SDS011;5274;51.992;8.518;2023-02-12T13:29:17;6.72;;;5.28;;
10452;SDS011;5274;51.992;8.518;2023-02-12T13:31:52;9.73;;;5.05;;
10452;SDS011;5274;51.992;8.518;2023-02-12T13:34:23;8.18;;;4.70;;
10452;SDS011;5274;51.992;8.518;2023-02-12T13:36:52;6.22;;;4.60;;
10452;SDS011;5274;51.992;8.518;2023-02-12T13:42:20;7.85;;;5.03;;
10452;SDS011;5274;51.992;8.518;2023-02-12T13:44:57;6.13;;;4.25;;
10452;SDS011;5274;51.992;8.518;2023-02-12T13:48:02;8.48;;;4.57;;
10452;SDS011;5274;51.992;8.518;2023-02-12T13:53:35;6.80;;;4.90;;
10452;SDS011;5274;51.992;8.518;2023-02-12T13:58:47;8.70;;;4.80;;
10452;SDS011;5274;51.992;8.518;2023-02-12T14:01:33;8.30;;;4.80;;
10452;SDS011;5274;51.992;8.518;2023-02-12T14:06:52;10.38;;;5.88;;
10452;SDS011;5274;51.992;8.518;2023-02-12T14:09:26;6.55;;;4.65;;
10452;SDS011;5274;51.992;8.518;2023-02-12T14:11:59;8.70;;;5.20;;
10452;SDS011;5274;51.992;8.518;2023-02-12T14:14:38;8.48;;;5.03;;
10452;SDS011;5274;51.992;8.518;2023-02-12T14:17:50;7.97;;;5.00;;
10452;SDS011;5274;51.992;8.518;2023-02-12T14:20:08;7.15;;;4.85;;
10452;SDS011;5274;51.992;8.518;2023-02-12T14:27:43;7.15;;;4.65;;
10452;SDS011;5274;51.992;8.518;2023-02-12T14:37:56;6.10;;;4.90;;
10452;SDS011;5274;51.992;8.518;2023-02-12T14:40:51;6.13;;;4.75;;
10452;SDS011;5274;51.992;8.518;2023-02-12T14:43:51;7.18;;;4.53;;
10452;SDS011;5274;51.992;8.518;2023-02-12T14:51:26;8.50;;;5.22;;
10452;SDS011;5274;51.992;8.518;2023-02-12T14:54:10;6.70;;;4.28;;
10452;SDS011;5274;51.992;8.518;2023-02-12T14:56:53;6.60;;;4.82;;
10452;SDS011;5274;51.992;8.518;2023-02-12T14:59:22;7.47;;;4.57;;
10452;SDS011;5274;51.992;8.518;2023-02-12T15:01:49;6.25;;;4.55;;
10452;SDS011;5274;51.992;8.518;2023-02-12T15:04:19;8.18;;;5.13;;
10452;SDS011;5274;51.992;8.518;2023-02-12T15:06:55;7.57;;;5.18;;
10452;SDS011;5274;51.992;8.518;2023-02-12T15:09:46;9.88;;;4.65;;
10452;SDS011;5274;51.992;8.518;2023-02-12T15:12:21;8.15;;;5.32;;
10452;SDS011;5274;51.992;8.518;2023-02-12T15:15:10;10.73;;;5.13;;
10452;SDS011;5274;51.992;8.518;2023-02-12T15:17:51;7.65;;;4.40;;
10452;SDS011;5274;51.992;8.518;2023-02-12T15:20:45;9.35;;;5.28;;
10452;SDS011;5274;51.992;8.518;2023-02-12T15:23:32;8.75;;;6.13;;
10452;SDS011;5274;51.992;8.518;2023-02-12T15:26:00;15.75;;;8.10;;
10452;SDS011;5274;51.992;8.518;2023-02-12T15:28:31;14.55;;;7.00;;
10452;SDS011;5274;51.992;8.518;2023-02-12T15:31:00;13.80;;;8.02;;
10452;SDS011;5274;51.992;8.518;2023-02-12T15:33:32;19.45;;;9.70;;
10452;SDS011;5274;51.992;8.518;2023-02-12T15:36:02;9.93;;;6.40;;
10452;SDS011;5274;51.992;8.518;2023-02-12T15:38:35;7.55;;;5.20;;
10452;SDS011;5274;51.992;8.518;2023-02-12T15:41:04;7.22;;;5.05;;
10452;SDS011;5274;51.992;8.518;2023-02-12T15:43:31;8.25;;;5.70;;
10452;SDS011;5274;51.992;8.518;2023-02-12T15:46:01;8.80;;;5.85;;
10452;SDS011;5274;51.992;8.518;2023-02-12T15:48:30;7.53;;;5.25;;
10452;SDS011;5274;51.992;8.518;2023-02-12T15:51:01;10.63;;;5.93;;
10452;SDS011;5274;51.992;8.518;2023-02-12T15:53:38;8.45;;;5.15;;
10452;SDS011;5274;51.992;8.518;2023-02-12T15:56:05;7.18;;;5.13;;
10452;SDS011;5274;51.992;8.518;2023-02-12T16:01:18;9.57;;;6.25;;
10452;SDS011;5274;51.992;8.518;2023-02-12T16:03:50;18.02;;;9.48;;
10452;SDS011;5274;51.992;8.518;2023-02-12T16:06:21;10.48;;;6.70;;
10452;SDS011;5274;51.992;8.518;2023-02-12T16:08:49;8.52;;;5.97;;
10452;SDS011;5274;51.992;8.518;2023-02-12T16:11:21;9.57;;;6.13;;
10452;SDS011;5274;51.992;8.518;2023-02-12T16:13:55;8.43;;;5.07;;
10452;SDS011;5274;51.992;8.518;2023-02-12T16:16:25;8.15;;;5.97;;
10452;SDS011;5274;51.992;8.518;2023-02-12T16:21:40;9.80;;;6.68;;
10452;SDS011;5274;51.992;8.518;2023-02-12T16:24:16;9.27;;;5.82;;
10452;SDS011;5274;51.992;8.518;2023-02-12T16:26:52;8.55;;;5.93;;
10452;SDS011;5274;51.992;8.518;2023-02-12T16:29:18;7.53;;;5.30;;
10452;SDS011;5274;51.992;8.518;2023-02-12T16:31:51;10.00;;;5.85;;
10452;SDS011;5274;51.992;8.518;2023-02-12T16:34:36;8.98;;;5.40;;
10452;SDS011;5274;51.992;8.518;2023-02-12T16:37:06;9.10;;;5.70;;
10452;SDS011;5274;51.992;8.518;2023-02-12T16:40:18;8.40;;;5.65;;
10452;SDS011;5274;51.992;8.518;2023-02-12T16:47:54;9.02;;;6.45;;
10452;SDS011;5274;51.992;8.518;2023-02-12T16:50:21;8.63;;;6.05;;
10452;SDS011;5274;51.992;8.518;2023-02-12T16:52:50;10.07;;;5.97;;
10452;SDS011;5274;51.992;8.518;2023-02-12T16:55:46;8.73;;;5.80;;
10452;SDS011;5274;51.992;8.518;2023-02-12T16:58:12;9.88;;;6.38;;
10452;SDS011;5274;51.992;8.518;2023-02-12T17:00:37;9.70;;;6.03;;
10452;SDS011;5274;51.992;8.518;2023-02-12T17:03:03;8.40;;;5.95;;
10452;SDS011;5274;51.992;8.518;2023-02-12T17:05:29;10.00;;;7.07;;
10452;SDS011;5274;51.992;8.518;2023-02-12T17:07:54;9.95;;;6.30;;
10452;SDS011;5274;51.992;8.518;2023-02-12T17:10:20;9.10;;;5.70;;